createdAt,value
2023-04-14T00:00:15.991Z,6.88
2023-04-14T00:02:44.184Z,6.87
2023-04-14T00:05:13.304Z,6.87
2023-04-14T00:07:41.089Z,6.87
2023-04-14T00:10:09.215Z,6.88
2023-04-14T00:12:36.841Z,6.88
2023-04-14T00:15:04.884Z,6.87
2023-04-14T00:17:32.692Z,6.86
2023-04-14T00:20:00.562Z,6.85
2023-04-14T00:22:30.000Z,6.85
2023-04-14T00:24:57.632Z,6.85
2023-04-14T00:27:25.221Z,6.83
2023-04-14T00:29:52.995Z,6.83
2023-04-14T00:32:20.754Z,6.83
2023-04-14T00:34:48.414Z,6.83
2023-04-14T00:37:16.664Z,6.83
2023-04-14T00:39:45.629Z,6.83
2023-04-14T00:42:17.286Z,6.81
2023-04-14T00:44:44.959Z,6.81
2023-04-14T00:47:12.752Z,6.81
2023-04-14T00:49:41.256Z,6.79
2023-04-14T00:52:09.017Z,6.78
2023-04-14T00:54:38.529Z,6.78
2023-04-14T00:57:07.734Z,6.78
2023-04-14T00:59:35.900Z,6.77
2023-04-14T01:02:03.695Z,6.77
2023-04-14T01:04:49.095Z,6.76
2023-04-14T01:07:20.702Z,6.74
2023-04-14T01:09:48.695Z,6.74
2023-04-14T01:12:31.423Z,6.73
2023-04-14T01:15:12.490Z,6.72
2023-04-14T01:17:46.921Z,6.71
2023-04-14T01:20:28.144Z,6.69
2023-04-14T01:23:03.030Z,6.66
2023-04-14T01:25:59.320Z,6.65
2023-04-14T01:28:42.947Z,6.64
2023-04-14T01:31:19.776Z,6.62
2023-04-14T01:33:54.972Z,6.61
2023-04-14T01:36:28.490Z,6.59
2023-04-14T01:38:58.551Z,6.58
2023-04-14T01:41:29.574Z,6.58
2023-04-14T01:44:00.071Z,6.56
2023-04-14T01:46:29.035Z,6.57
2023-04-14T01:48:57.342Z,6.57
2023-04-14T01:51:27.491Z,6.56
2023-04-14T01:53:56.424Z,6.55
2023-04-14T01:56:25.027Z,6.55
2023-04-14T01:58:54.513Z,6.55
2023-04-14T02:01:22.805Z,6.54
2023-04-14T02:03:52.380Z,6.53
2023-04-14T02:06:23.743Z,6.53
2023-04-14T02:08:52.336Z,6.52
2023-04-14T02:11:22.024Z,6.51
2023-04-14T02:13:50.685Z,6.52
2023-04-14T02:16:19.984Z,6.51
2023-04-14T02:18:48.895Z,6.50
2023-04-14T02:21:19.473Z,6.49
2023-04-14T02:23:47.232Z,6.48
2023-04-14T02:26:17.209Z,6.48
2023-04-14T02:28:51.045Z,6.47
2023-04-14T02:31:24.040Z,6.46
2023-04-14T02:33:55.783Z,6.45
2023-04-14T02:36:32.305Z,6.44
2023-04-14T02:39:03.688Z,6.44
2023-04-14T02:41:34.448Z,6.44
2023-04-14T02:44:06.937Z,6.43
2023-04-14T02:46:38.517Z,6.43
2023-04-14T02:49:07.940Z,6.43
2023-04-14T02:51:38.832Z,6.43
2023-04-14T02:54:07.258Z,6.41
2023-04-14T02:56:41.977Z,6.42
2023-04-14T02:59:10.883Z,6.41
2023-04-14T03:01:49.717Z,6.41
2023-04-14T03:04:19.226Z,6.40
2023-04-14T03:06:49.153Z,6.40
2023-04-14T03:09:19.448Z,6.39
2023-04-14T03:11:47.704Z,6.36
2023-04-14T03:14:18.095Z,6.36
2023-04-14T03:16:46.995Z,6.36
2023-04-14T03:19:15.641Z,6.36
2023-04-14T03:21:49.669Z,6.35
2023-04-14T03:24:24.378Z,6.36
2023-04-14T03:26:57.461Z,6.36
2023-04-14T03:29:27.915Z,6.35
2023-04-14T03:32:01.165Z,6.34
2023-04-14T03:34:31.601Z,6.35
2023-04-14T03:37:01.764Z,6.34
2023-04-14T03:39:31.683Z,6.33
2023-04-14T03:42:01.976Z,6.33
2023-04-14T03:44:35.584Z,6.32
2023-04-14T03:47:04.157Z,6.31
2023-04-14T03:49:33.535Z,6.30
2023-04-14T03:52:06.668Z,6.30
2023-04-14T03:54:37.292Z,6.30
2023-04-14T03:57:08.748Z,6.30
2023-04-14T03:59:39.444Z,6.29
2023-04-14T04:02:08.636Z,6.29
2023-04-14T04:04:37.021Z,6.29
2023-04-14T04:07:10.557Z,6.28
2023-04-14T04:09:39.817Z,6.27
2023-04-14T04:12:10.446Z,6.27
2023-04-14T04:14:40.368Z,6.27
2023-04-14T04:17:11.730Z,6.27
2023-04-14T04:19:40.869Z,6.27
2023-04-14T04:22:12.319Z,6.26
2023-04-14T04:24:41.292Z,6.25
2023-04-14T04:27:26.638Z,6.25
2023-04-14T04:29:58.660Z,6.24
2023-04-14T04:32:26.720Z,6.24
2023-04-14T04:34:56.714Z,6.23
2023-04-14T04:37:28.705Z,6.24
2023-04-14T04:39:58.081Z,6.25
2023-04-14T04:42:26.110Z,6.25
2023-04-14T04:44:56.137Z,6.24
2023-04-14T04:47:23.923Z,6.25
2023-04-14T04:49:51.661Z,6.25
2023-04-14T04:52:19.272Z,6.24
2023-04-14T04:54:52.318Z,6.25
2023-04-14T04:57:20.219Z,6.25
2023-04-14T04:59:48.084Z,6.25
2023-04-14T05:02:15.712Z,6.26
2023-04-14T05:04:43.443Z,6.25
2023-04-14T05:07:11.060Z,6.25
2023-04-14T05:09:38.696Z,6.27
2023-04-14T05:12:07.743Z,6.26
2023-04-14T05:14:35.732Z,6.26
2023-04-14T05:17:03.586Z,6.27
2023-04-14T05:19:31.176Z,6.27
2023-04-14T05:21:58.819Z,6.29
2023-04-14T05:24:27.380Z,6.28
2023-04-14T05:27:13.100Z,6.30
2023-04-14T05:29:44.474Z,6.31
2023-04-14T05:32:14.426Z,6.32
2023-04-14T05:34:42.144Z,6.34
2023-04-14T05:37:09.724Z,6.34
2023-04-14T05:39:37.509Z,6.36
2023-04-14T05:42:05.568Z,6.38
2023-04-14T05:44:33.269Z,6.38
2023-04-14T05:47:02.340Z,6.40
2023-04-14T05:49:30.540Z,6.40
2023-04-14T05:51:58.169Z,6.41
2023-04-14T05:54:25.841Z,6.42
2023-04-14T05:56:53.443Z,6.46
2023-04-14T05:59:21.279Z,6.47
2023-04-14T06:01:49.034Z,6.49
2023-04-14T06:04:18.395Z,6.51
2023-04-14T06:06:46.351Z,6.53
2023-04-14T06:09:14.273Z,6.53
2023-04-14T06:11:41.888Z,6.57
2023-04-14T06:14:09.619Z,6.60
2023-04-14T06:16:37.272Z,6.62
2023-04-14T06:19:04.930Z,6.66
2023-04-14T06:21:33.876Z,6.69
2023-04-14T06:24:01.517Z,6.73
2023-04-14T06:26:29.256Z,6.81
2023-04-14T06:28:57.398Z,6.84
2023-04-14T06:31:25.051Z,6.90
2023-04-14T06:33:53.049Z,6.96
2023-04-14T06:36:20.980Z,7.01
2023-04-14T06:38:49.967Z,7.05
2023-04-14T06:41:17.558Z,7.09
2023-04-14T06:43:45.306Z,7.13
2023-04-14T06:46:13.078Z,7.17
2023-04-14T06:48:40.739Z,7.22
2023-04-14T06:51:10.639Z,7.26
2023-04-14T06:53:38.243Z,7.32
2023-04-14T06:56:08.432Z,7.36
2023-04-14T06:58:36.643Z,7.41
2023-04-14T07:01:04.847Z,7.46
2023-04-14T07:03:33.040Z,7.51
2023-04-14T07:06:04.869Z,7.55
2023-04-14T07:08:34.905Z,7.60
2023-04-14T07:11:04.424Z,7.65
2023-04-14T07:13:34.394Z,7.68
2023-04-14T07:16:03.321Z,7.70
2023-04-14T07:18:31.709Z,7.74
2023-04-14T07:21:00.255Z,7.79
2023-04-14T07:23:28.406Z,7.83
2023-04-14T07:28:11.577Z,7.93
2023-04-14T07:30:39.420Z,7.97
2023-04-14T07:33:07.131Z,8.02
2023-04-14T07:35:39.207Z,8.08
2023-04-14T07:38:11.741Z,8.15
2023-04-14T07:40:40.238Z,8.21
2023-04-14T07:43:08.310Z,8.28
2023-04-14T07:45:37.653Z,8.34
2023-04-14T07:48:06.008Z,8.40
2023-04-14T07:50:33.751Z,8.48
2023-04-14T07:53:02.027Z,8.53
2023-04-14T07:55:29.768Z,8.59
2023-04-14T07:57:57.434Z,8.66
2023-04-14T08:00:26.678Z,8.71
2023-04-14T08:02:55.800Z,8.75
2023-04-14T08:05:23.552Z,8.82
2023-04-14T08:07:51.978Z,8.90
2023-04-14T08:10:19.998Z,8.98
2023-04-14T08:12:48.229Z,9.06
2023-04-14T08:15:16.363Z,9.13
2023-04-14T08:17:44.092Z,9.20
2023-04-14T08:20:13.383Z,9.27
2023-04-14T08:22:41.323Z,9.33
2023-04-14T08:25:12.060Z,9.38
2023-04-14T08:27:39.758Z,9.43
2023-04-14T08:30:10.243Z,9.50
2023-04-14T08:32:39.088Z,9.53
2023-04-14T08:35:37.200Z,9.58
2023-04-14T08:37:56.472Z,9.63
2023-04-14T08:40:31.733Z,9.67
2023-04-14T08:42:59.379Z,9.68
2023-04-14T08:45:27.266Z,9.71
2023-04-14T08:47:57.488Z,9.74
2023-04-14T08:50:27.497Z,9.78
2023-04-14T08:52:57.692Z,9.81
2023-04-14T08:55:26.785Z,9.85
2023-04-14T08:57:55.672Z,9.90
2023-04-14T09:00:23.842Z,9.96
2023-04-14T09:02:52.949Z,10.03
2023-04-14T09:05:21.581Z,10.10
2023-04-14T09:07:49.567Z,10.20
2023-04-14T09:10:22.204Z,10.29
2023-04-14T09:13:01.715Z,10.37
2023-04-14T09:15:31.284Z,10.41
2023-04-14T09:17:59.520Z,10.48
2023-04-14T09:20:36.568Z,10.58
2023-04-14T09:23:09.334Z,10.68
2023-04-14T09:25:40.475Z,10.72
2023-04-14T09:28:08.795Z,10.77
2023-04-14T09:30:37.909Z,10.85
2023-04-14T09:33:07.201Z,10.97
2023-04-14T09:35:47.320Z,11.04
2023-04-14T09:38:15.493Z,11.11
2023-04-14T09:40:45.414Z,11.22
2023-04-14T09:43:25.297Z,11.36
2023-04-14T09:45:53.169Z,11.52
2023-04-14T09:48:21.605Z,11.65
2023-04-14T09:51:03.376Z,11.82
2023-04-14T09:53:32.783Z,11.97
2023-04-14T09:56:04.901Z,12.14
2023-04-14T09:58:34.554Z,12.24
2023-04-14T10:01:04.902Z,12.34
2023-04-14T10:03:34.915Z,12.48
2023-04-14T10:06:04.722Z,12.62
2023-04-14T10:08:37.190Z,12.72
2023-04-14T10:11:20.708Z,12.84
2023-04-14T10:13:49.773Z,12.94
2023-04-14T10:16:18.794Z,13.08
2023-04-14T10:18:49.399Z,13.23
2023-04-14T10:21:17.950Z,13.34
2023-04-14T10:23:46.512Z,13.43
2023-04-14T10:26:15.129Z,13.49
2023-04-14T10:28:46.887Z,13.55
2023-04-14T10:31:20.461Z,13.58
2023-04-14T10:33:48.862Z,13.63
2023-04-14T10:36:25.451Z,13.71
2023-04-14T10:39:00.900Z,13.84
2023-04-14T10:41:38.410Z,14.02
2023-04-14T10:44:24.966Z,14.14
2023-04-14T10:46:56.932Z,14.26
2023-04-14T10:49:33.067Z,14.32
2023-04-14T10:52:02.148Z,14.35
2023-04-14T10:54:48.592Z,14.38
2023-04-14T10:57:16.317Z,14.34
2023-04-14T10:59:47.659Z,14.32
2023-04-14T11:02:26.827Z,14.29
2023-04-14T11:05:06.685Z,14.34
2023-04-14T11:07:39.063Z,14.37
2023-04-14T11:10:26.399Z,14.35
2023-04-14T11:12:57.328Z,14.27
2023-04-14T11:15:44.054Z,14.19
2023-04-14T11:18:13.980Z,14.12
2023-04-14T11:20:42.649Z,13.98
2023-04-14T11:23:11.054Z,13.84
2023-04-14T11:25:40.313Z,13.69
2023-04-14T11:28:08.004Z,13.54
2023-04-14T11:30:37.624Z,13.42
2023-04-14T11:33:05.332Z,13.31
2023-04-14T11:35:33.136Z,13.24
2023-04-14T11:38:01.779Z,13.20
2023-04-14T11:40:29.597Z,13.18
2023-04-14T11:43:00.645Z,13.20
2023-04-14T11:45:29.843Z,13.23
2023-04-14T11:48:03.742Z,13.14
2023-04-14T11:50:33.141Z,12.97
2023-04-14T11:53:02.650Z,12.87
2023-04-14T11:55:31.394Z,12.82
2023-04-14T11:57:59.317Z,12.78
2023-04-14T12:00:28.489Z,12.75
2023-04-14T12:02:57.420Z,12.78
2023-04-14T12:05:31.215Z,12.84
2023-04-14T12:08:00.749Z,12.87
2023-04-14T12:10:28.695Z,12.97
2023-04-14T12:13:00.923Z,13.06
2023-04-14T12:15:29.056Z,13.12
2023-04-14T12:17:57.279Z,13.17
2023-04-14T12:20:27.100Z,13.20
2023-04-14T12:23:02.446Z,13.20
2023-04-14T12:25:32.816Z,13.17
2023-04-14T12:28:02.485Z,13.24
2023-04-14T12:30:30.474Z,13.37
2023-04-14T12:32:58.241Z,13.37
2023-04-14T12:35:35.537Z,13.41
2023-04-14T12:38:10.617Z,13.35
2023-04-14T12:40:39.039Z,13.36
2023-04-14T12:43:10.005Z,13.36
2023-04-14T12:45:44.521Z,13.31
2023-04-14T12:48:13.383Z,13.30
2023-04-14T12:50:42.733Z,13.27
2023-04-14T12:53:29.574Z,13.21
2023-04-14T12:56:12.527Z,13.12
2023-04-14T12:58:42.633Z,13.06
2023-04-14T13:01:13.031Z,12.99
2023-04-14T13:03:47.388Z,13.01
2023-04-14T13:06:18.156Z,13.08
2023-04-14T13:08:49.836Z,13.18
2023-04-14T13:11:19.043Z,13.23
2023-04-14T13:13:47.320Z,13.28
2023-04-14T13:16:17.664Z,13.37
2023-04-14T13:18:47.631Z,13.38
2023-04-14T13:21:17.647Z,13.33
2023-04-14T13:23:45.708Z,13.23
2023-04-14T13:26:13.702Z,13.17
2023-04-14T13:28:41.406Z,13.14
2023-04-14T13:31:10.169Z,13.17
2023-04-14T13:33:38.581Z,13.23
2023-04-14T13:36:09.216Z,13.37
2023-04-14T13:38:38.232Z,13.44
2023-04-14T13:41:06.890Z,13.53
2023-04-14T13:43:34.915Z,13.55
2023-04-14T13:46:03.370Z,13.56
2023-04-14T13:48:32.205Z,13.54
2023-04-14T13:51:00.056Z,13.52
2023-04-14T13:53:27.673Z,13.53
2023-04-14T13:55:56.659Z,13.48
2023-04-14T13:58:25.412Z,13.47
2023-04-14T14:00:55.141Z,13.41
2023-04-14T14:03:24.089Z,13.35
2023-04-14T14:05:51.872Z,13.27
2023-04-14T14:08:19.477Z,13.19
2023-04-14T14:10:48.184Z,13.12
2023-04-14T14:13:18.553Z,13.07
2023-04-14T14:15:46.482Z,13.08
2023-04-14T14:18:14.481Z,13.07
2023-04-14T14:20:43.794Z,13.08
2023-04-14T14:23:12.919Z,13.08
2023-04-14T14:25:41.230Z,13.08
2023-04-14T14:28:09.979Z,13.08
2023-04-14T14:30:39.323Z,13.04
2023-04-14T14:33:06.979Z,12.99
2023-04-14T14:35:38.767Z,13.01
2023-04-14T14:38:07.744Z,13.04
2023-04-14T14:40:35.349Z,13.07
2023-04-14T14:43:03.302Z,13.08
2023-04-14T14:45:32.444Z,13.16
2023-04-14T14:48:02.658Z,13.21
2023-04-14T14:50:31.378Z,13.28
2023-04-14T14:52:58.974Z,13.33
2023-04-14T14:55:27.326Z,13.36
2023-04-14T14:57:55.216Z,13.31
2023-04-14T15:00:23.593Z,13.29
2023-04-14T15:02:51.515Z,13.25
2023-04-14T15:05:22.134Z,13.23
2023-04-14T15:07:50.962Z,13.21
2023-04-14T15:10:18.852Z,13.20
2023-04-14T15:12:49.467Z,13.13
2023-04-14T15:15:19.223Z,13.11
2023-04-14T15:17:47.144Z,13.01
2023-04-14T15:20:15.528Z,12.96
2023-04-14T15:22:46.177Z,12.85
2023-04-14T15:25:14.150Z,12.75
2023-04-14T15:27:41.794Z,12.64
2023-04-14T15:30:10.334Z,12.53
2023-04-14T15:32:38.108Z,12.43
2023-04-14T15:35:06.802Z,12.31
2023-04-14T15:37:35.310Z,12.21
2023-04-14T15:40:06.505Z,12.07
2023-04-14T15:42:34.361Z,11.98
2023-04-14T15:45:06.126Z,11.92
2023-04-14T15:47:34.942Z,11.89
2023-04-14T15:50:09.709Z,11.86
2023-04-14T15:52:40.536Z,11.80
2023-04-14T15:55:10.614Z,11.75
2023-04-14T15:57:38.281Z,11.65
2023-04-14T16:00:08.037Z,11.54
2023-04-14T16:02:42.235Z,11.46
2023-04-14T16:05:11.000Z,11.41
2023-04-14T16:07:40.340Z,11.34
2023-04-14T16:10:09.950Z,11.30
2023-04-14T16:12:38.674Z,11.25
2023-04-14T16:15:11.463Z,11.15
2023-04-14T16:17:45.042Z,11.07
2023-04-14T16:20:19.651Z,11.01
2023-04-14T16:22:49.315Z,10.97
2023-04-14T16:25:18.590Z,10.94
2023-04-14T16:27:46.329Z,10.95
2023-04-14T16:30:14.333Z,10.94
2023-04-14T16:32:42.349Z,10.92
2023-04-14T16:35:11.863Z,10.90
2023-04-14T16:37:39.486Z,10.85
2023-04-14T16:40:08.222Z,10.80
2023-04-14T16:42:37.445Z,10.74
2023-04-14T16:45:06.236Z,10.66
2023-04-14T16:47:33.933Z,10.62
2023-04-14T16:50:01.670Z,10.56
2023-04-14T16:52:31.071Z,10.52
2023-04-14T16:54:59.470Z,10.48
2023-04-14T16:57:27.560Z,10.45
2023-04-14T16:59:56.493Z,10.39
2023-04-14T17:02:24.312Z,10.35
2023-04-14T17:04:52.285Z,10.33
2023-04-14T17:07:19.976Z,10.30
2023-04-14T17:09:48.088Z,10.25
2023-04-14T17:12:15.779Z,10.21
2023-04-14T17:14:43.473Z,10.19
2023-04-14T17:17:12.838Z,10.16
2023-04-14T17:19:40.656Z,10.08
2023-04-14T17:22:08.632Z,10.03
2023-04-14T17:24:36.611Z,9.95
2023-04-14T17:27:04.550Z,9.88
2023-04-14T17:29:33.058Z,9.83
2023-04-14T17:32:01.098Z,9.79
2023-04-14T17:34:30.694Z,9.77
2023-04-14T17:36:58.851Z,9.77
2023-04-14T17:39:27.725Z,9.72
2023-04-14T17:41:57.952Z,9.70
2023-04-14T17:44:32.276Z,9.67
2023-04-14T17:47:01.031Z,9.65
2023-04-14T17:49:30.154Z,9.61
2023-04-14T17:51:58.007Z,9.58
2023-04-14T17:54:26.367Z,9.56
2023-04-14T17:56:54.213Z,9.50
2023-04-14T17:59:22.167Z,9.47
2023-04-14T18:01:49.959Z,9.44
2023-04-14T18:04:17.709Z,9.40
2023-04-14T18:06:46.726Z,9.35
2023-04-14T18:09:14.410Z,9.32
2023-04-14T18:11:42.009Z,9.30
2023-04-14T18:14:09.600Z,9.27
2023-04-14T18:16:37.641Z,9.24
2023-04-14T18:19:05.997Z,9.20
2023-04-14T18:21:33.722Z,9.16
2023-04-14T18:26:33.920Z,9.07
2023-04-14T18:29:01.683Z,9.07
2023-04-14T18:31:29.624Z,9.04
2023-04-14T18:34:03.070Z,9.02
2023-04-14T18:36:32.307Z,8.98
2023-04-14T18:39:01.378Z,8.93
2023-04-14T18:41:30.488Z,8.93
2023-04-14T18:43:58.132Z,8.91
2023-04-14T18:46:25.901Z,8.88
2023-04-14T18:48:53.743Z,8.86
2023-04-14T18:51:21.698Z,8.85
2023-04-14T18:53:49.420Z,8.82
2023-04-14T18:56:17.061Z,8.77
2023-04-14T18:58:46.207Z,8.74
2023-04-14T19:01:13.937Z,8.71
2023-04-14T19:03:41.613Z,8.70
2023-04-14T19:06:09.654Z,8.68
2023-04-14T19:08:37.339Z,8.65
2023-04-14T19:11:05.497Z,8.63
2023-04-14T19:13:33.157Z,8.62
2023-04-14T19:16:08.407Z,8.58
2023-04-14T19:18:36.628Z,8.56
2023-04-14T19:21:04.502Z,8.53
2023-04-14T19:23:32.184Z,8.52
2023-04-14T19:26:00.358Z,8.51
2023-04-14T19:28:28.044Z,8.49
2023-04-14T19:30:55.912Z,8.48
2023-04-14T19:33:26.834Z,8.46
2023-04-14T19:35:54.712Z,8.44
2023-04-14T19:38:22.386Z,8.40
2023-04-14T19:40:50.869Z,8.39
2023-04-14T19:43:19.121Z,8.38
2023-04-14T19:45:52.843Z,8.37
2023-04-14T19:48:24.077Z,8.36
2023-04-14T19:50:54.528Z,8.34
2023-04-14T19:53:22.656Z,8.32
2023-04-14T19:55:51.446Z,8.30
2023-04-14T19:58:21.335Z,8.26
2023-04-14T20:00:51.069Z,8.21
2023-04-14T20:03:19.230Z,8.18
2023-04-14T20:05:50.528Z,8.16
2023-04-14T20:08:20.305Z,8.14
2023-04-14T20:10:51.254Z,8.11
2023-04-14T20:13:19.958Z,8.09
2023-04-14T20:15:49.148Z,8.07
2023-04-14T20:18:18.153Z,8.03
2023-04-14T20:20:46.072Z,8.00
2023-04-14T20:23:14.421Z,8.00
2023-04-14T20:25:44.942Z,7.97
2023-04-14T20:28:12.630Z,7.94
2023-04-14T20:30:40.494Z,7.90
2023-04-14T20:33:08.102Z,7.85
2023-04-14T20:35:38.215Z,7.81
2023-04-14T20:38:06.141Z,7.77
2023-04-14T20:40:33.914Z,7.73
2023-04-14T20:43:03.717Z,7.69
2023-04-14T20:45:32.115Z,7.64
2023-04-14T20:48:00.198Z,7.61
2023-04-14T20:50:28.309Z,7.60
2023-04-14T20:52:56.349Z,7.59
2023-04-14T20:55:24.724Z,7.58
2023-04-14T20:57:52.968Z,7.57
2023-04-14T21:00:21.967Z,7.54
2023-04-14T21:02:51.853Z,7.52
2023-04-14T21:05:20.150Z,7.49
2023-04-14T21:07:47.735Z,7.46
2023-04-14T21:10:15.885Z,7.44
2023-04-14T21:14:51.971Z,7.42
2023-04-14T21:15:55.727Z,7.38
2023-04-14T21:18:20.489Z,7.36
2023-04-14T21:20:48.132Z,7.34
2023-04-14T21:23:16.082Z,7.33
2023-04-14T21:25:43.766Z,7.31
2023-04-14T21:28:11.400Z,7.30
2023-04-14T21:30:40.391Z,7.29
2023-04-14T21:33:08.766Z,7.26
2023-04-14T21:35:36.637Z,7.24
2023-04-14T21:38:04.522Z,7.21
2023-04-14T21:40:32.176Z,7.18
2023-04-14T21:42:59.796Z,7.17
2023-04-14T21:45:28.390Z,7.15
2023-04-14T21:47:57.873Z,7.15
2023-04-14T21:50:25.816Z,7.13
2023-04-14T21:52:53.456Z,7.11
2023-04-14T21:55:21.140Z,7.11
2023-04-14T21:57:49.958Z,7.10
2023-04-14T22:00:18.408Z,7.09
2023-04-14T22:02:46.797Z,7.08
2023-04-14T22:05:16.504Z,7.07
2023-04-14T22:07:45.517Z,7.05
2023-04-14T22:10:13.173Z,7.02
2023-04-14T22:12:42.349Z,7.00
2023-04-14T22:15:10.863Z,6.98
2023-04-14T22:17:39.547Z,6.96
2023-04-14T22:20:08.176Z,6.93
2023-04-14T22:22:37.492Z,6.92
2023-04-14T22:25:05.722Z,6.91
2023-04-14T22:27:34.422Z,6.90
2023-04-14T22:30:02.681Z,6.90
2023-04-14T22:32:30.344Z,6.89
2023-04-14T22:34:58.088Z,6.89
2023-04-14T22:37:25.717Z,6.90
2023-04-14T22:39:54.671Z,6.88
2023-04-14T22:42:22.459Z,6.87
2023-04-14T22:44:51.233Z,6.85
2023-04-14T22:47:18.906Z,6.82
2023-04-14T22:49:46.625Z,6.79
2023-04-14T22:52:14.208Z,6.77
2023-04-14T22:54:41.801Z,6.74
2023-04-14T22:57:11.223Z,6.71
2023-04-14T22:59:38.820Z,6.69
2023-04-14T23:02:07.228Z,6.67
2023-04-14T23:04:35.082Z,6.64
2023-04-14T23:07:02.702Z,6.62
2023-04-14T23:09:31.243Z,6.60
2023-04-14T23:11:58.873Z,6.59
2023-04-14T23:14:27.849Z,6.57
2023-04-14T23:16:55.457Z,6.55
2023-04-14T23:19:23.106Z,6.53
2023-04-14T23:21:51.029Z,6.52
2023-04-14T23:24:18.784Z,6.49
2023-04-14T23:26:46.498Z,6.47
2023-04-14T23:29:14.147Z,6.45
2023-04-14T23:31:43.158Z,6.46
2023-04-14T23:34:11.152Z,6.44
2023-04-14T23:36:38.928Z,6.44
2023-04-14T23:39:06.589Z,6.47
2023-04-14T23:41:34.197Z,6.44
2023-04-14T23:44:01.811Z,6.44
2023-04-14T23:46:29.843Z,6.41
2023-04-14T23:48:59.498Z,6.40
2023-04-14T23:51:38.738Z,6.39
2023-04-14T23:54:07.511Z,6.38
2023-04-14T23:56:35.286Z,6.36
2023-04-14T23:59:03.465Z,6.35
